createdAt,value
2019-03-18T00:01:57.825Z,99902
2019-03-18T00:07:20.420Z,99902
2019-03-18T00:12:43.064Z,99911
2019-03-18T00:18:05.650Z,99906
2019-03-18T00:23:28.361Z,99921
2019-03-18T00:28:50.985Z,99925
2019-03-18T00:34:14.165Z,99915
2019-03-18T00:39:36.902Z,99926
2019-03-18T00:44:59.578Z,99924
2019-03-18T00:50:24.129Z,99933
2019-03-18T00:55:47.741Z,99930
2019-03-18T01:01:10.355Z,99933
2019-03-18T01:06:33.019Z,99944
2019-03-18T01:11:55.632Z,99954
2019-03-18T01:17:18.275Z,99953
2019-03-18T01:22:40.900Z,99959
2019-03-18T01:28:03.540Z,99960
2019-03-18T01:33:26.188Z,99967
2019-03-18T01:38:48.786Z,99963
2019-03-18T01:44:11.845Z,99961
2019-03-18T01:49:34.447Z,99953
2019-03-18T01:54:57.093Z,99963
2019-03-18T02:00:19.700Z,99975
2019-03-18T02:05:42.307Z,99978
2019-03-18T02:11:04.974Z,99977
2019-03-18T02:16:27.596Z,99993
2019-03-18T02:21:50.230Z,100005
2019-03-18T02:27:12.887Z,100015
2019-03-18T02:32:36.105Z,100019
2019-03-18T02:37:58.720Z,100019
2019-03-18T02:43:21.374Z,100023
2019-03-18T02:48:43.986Z,100029
2019-03-18T02:54:06.615Z,100026
2019-03-18T02:59:29.243Z,100029
2019-03-18T03:04:51.904Z,100026
2019-03-18T03:10:14.538Z,100028
2019-03-18T03:15:37.159Z,100037
2019-03-18T03:20:59.797Z,100035
2019-03-18T03:26:22.406Z,100048
2019-03-18T03:31:45.902Z,100043
2019-03-18T03:37:08.530Z,100049
2019-03-18T03:42:31.190Z,100042
2019-03-18T03:47:53.835Z,100047
2019-03-18T03:53:16.491Z,100050
2019-03-18T03:58:39.150Z,100052
2019-03-18T04:04:02.621Z,100055
2019-03-18T04:09:25.654Z,100060
2019-03-18T04:14:48.257Z,100058
2019-03-18T04:20:10.901Z,100060
2019-03-18T04:25:33.541Z,100068
2019-03-18T04:30:57.213Z,100079
2019-03-18T04:36:19.982Z,100084
2019-03-18T04:41:43.649Z,100095
2019-03-18T04:47:13.949Z,100101
2019-03-18T04:52:30.089Z,100110
2019-03-18T04:57:52.817Z,100120
2019-03-18T05:03:15.474Z,100124
2019-03-18T05:08:38.110Z,100130
2019-03-18T05:14:00.791Z,100129
2019-03-18T05:19:23.454Z,100140
2019-03-18T05:24:46.091Z,100146
2019-03-18T05:30:08.725Z,100145
2019-03-18T05:35:31.412Z,100163
2019-03-18T05:40:54.123Z,100171
2019-03-18T05:46:16.804Z,100180
2019-03-18T05:51:40.137Z,100193
2019-03-18T05:57:02.796Z,100202
2019-03-18T06:02:25.511Z,100207
2019-03-18T06:07:48.202Z,100214
2019-03-18T06:13:11.836Z,100224
2019-03-18T06:18:34.504Z,100236
2019-03-18T06:23:57.169Z,100228
2019-03-18T06:29:19.859Z,100244
2019-03-18T06:34:42.534Z,100248
2019-03-18T06:40:08.505Z,100258
2019-03-18T06:45:31.182Z,100267
2019-03-18T06:50:53.927Z,100279
2019-03-18T06:56:16.601Z,100288
2019-03-18T07:01:39.330Z,100293
2019-03-18T07:07:02.060Z,100308
2019-03-18T07:12:24.702Z,100317
2019-03-18T07:17:48.220Z,100324
2019-03-18T07:23:10.859Z,100333
2019-03-18T07:28:34.190Z,100337
2019-03-18T07:33:59.698Z,100355
2019-03-18T07:39:21.300Z,100358
2019-03-18T07:44:44.002Z,100362
2019-03-18T07:50:06.623Z,100366
2019-03-18T07:55:30.079Z,100376
2019-03-18T08:00:53.017Z,100384
2019-03-18T08:06:16.213Z,100389
2019-03-18T08:11:38.878Z,100397
2019-03-18T08:17:01.553Z,100409
2019-03-18T08:22:24.258Z,100411
2019-03-18T08:27:46.939Z,100420
2019-03-18T08:33:09.648Z,100423
2019-03-18T08:38:32.289Z,100430
2019-03-18T08:43:55.026Z,100433
2019-03-18T08:49:17.786Z,100428
2019-03-18T08:54:40.840Z,100447
2019-03-18T09:00:03.581Z,100452
2019-03-18T09:05:26.346Z,100463
2019-03-18T09:10:49.051Z,100453
2019-03-18T09:16:11.705Z,100460
2019-03-18T09:21:34.362Z,100460
2019-03-18T09:27:02.122Z,100464
2019-03-18T09:32:20.693Z,100477
2019-03-18T09:37:43.385Z,100500
2019-03-18T09:43:07.017Z,100503
2019-03-18T09:48:29.691Z,100503
2019-03-18T09:53:53.025Z,100516
2019-03-18T09:59:15.728Z,100502
2019-03-18T10:04:38.380Z,100515
2019-03-18T10:10:01.045Z,100519
2019-03-18T10:15:23.685Z,100510
2019-03-18T10:20:46.412Z,100514
2019-03-18T10:26:09.309Z,100516
2019-03-18T10:31:31.971Z,100527
2019-03-18T10:36:54.625Z,100536
2019-03-18T10:42:17.278Z,100563
2019-03-18T10:47:39.899Z,100577
2019-03-18T10:53:02.576Z,100631
2019-03-18T10:58:25.303Z,100667
2019-03-18T11:03:46.930Z,100671
2019-03-18T11:09:09.629Z,100654
2019-03-18T11:14:32.361Z,100635
2019-03-18T11:19:58.567Z,100650
2019-03-18T11:25:17.642Z,100647
2019-03-18T11:30:40.308Z,100663
2019-03-18T11:36:03.137Z,100663
2019-03-18T11:41:25.875Z,100662
2019-03-18T11:46:48.581Z,100672
2019-03-18T11:52:12.365Z,100664
2019-03-18T11:57:35.003Z,100665
2019-03-18T12:02:57.685Z,100658
2019-03-18T12:08:20.457Z,100649
2019-03-18T12:13:44.280Z,100649
2019-03-18T12:19:06.899Z,100654
2019-03-18T12:24:29.570Z,100655
2019-03-18T12:29:52.381Z,100701
2019-03-18T12:35:15.215Z,100711
2019-03-18T12:40:38.880Z,100737
2019-03-18T12:46:01.639Z,100728
2019-03-18T12:51:24.285Z,100706
2019-03-18T12:56:48.594Z,100708
2019-03-18T13:02:11.441Z,100706
2019-03-18T13:07:34.265Z,100706
2019-03-18T13:12:57.111Z,100712
2019-03-18T13:18:19.713Z,100708
2019-03-18T13:23:42.594Z,100699
2019-03-18T13:29:05.233Z,100703
2019-03-18T13:34:27.996Z,100699
2019-03-18T13:39:50.716Z,100699
2019-03-18T13:45:13.356Z,100690
2019-03-18T13:50:36.155Z,100684
2019-03-18T13:55:58.827Z,100675
2019-03-18T14:01:21.495Z,100678
2019-03-18T14:06:44.341Z,100675
2019-03-18T14:12:07.010Z,100686
2019-03-18T14:17:29.711Z,100695
2019-03-18T14:22:52.324Z,100722
2019-03-18T14:28:14.926Z,100731
2019-03-18T14:33:38.443Z,100728
2019-03-18T14:39:02.053Z,100735
2019-03-18T14:44:24.630Z,100741
2019-03-18T14:49:47.338Z,100745
2019-03-18T14:55:10.422Z,100762
2019-03-18T15:00:32.919Z,100763
2019-03-18T15:05:55.565Z,100758
2019-03-18T15:11:18.319Z,100763
2019-03-18T15:16:41.720Z,100760
2019-03-18T15:22:04.401Z,100778
2019-03-18T15:27:27.070Z,100783
2019-03-18T15:32:49.708Z,100802
2019-03-18T15:38:12.379Z,100811
2019-03-18T15:43:36.601Z,100823
2019-03-18T15:48:59.257Z,100824
2019-03-18T15:54:21.940Z,100824
2019-03-18T15:59:44.717Z,100839
2019-03-18T16:05:07.226Z,100858
2019-03-18T16:10:29.983Z,100872
2019-03-18T16:15:52.618Z,100865
2019-03-18T16:21:15.236Z,100875
2019-03-18T16:26:37.979Z,100886
2019-03-18T16:32:10.675Z,100902
2019-03-18T16:37:25.219Z,100901
2019-03-18T16:42:47.841Z,100905
2019-03-18T16:48:10.512Z,100903
2019-03-18T16:53:33.129Z,100922
2019-03-18T16:58:56.548Z,100939
2019-03-18T17:04:19.338Z,100942
2019-03-18T17:09:42.093Z,100948
2019-03-18T17:15:04.961Z,100956
2019-03-18T17:20:27.633Z,100960
2019-03-18T17:25:50.489Z,100975
2019-03-18T17:31:13.346Z,100982
2019-03-18T17:36:35.990Z,100986
2019-03-18T17:41:58.706Z,100992
2019-03-18T17:47:21.482Z,101002
2019-03-18T17:52:44.208Z,101021
2019-03-18T17:58:08.262Z,101021
2019-03-18T18:03:31.271Z,101032
2019-03-18T18:08:53.933Z,101045
2019-03-18T18:14:16.606Z,101052
2019-03-18T18:19:39.294Z,101060
2019-03-18T18:25:01.990Z,101059
2019-03-18T18:30:24.742Z,101066
2019-03-18T18:35:47.567Z,101075
2019-03-18T18:41:10.269Z,101078
2019-03-18T18:46:33.681Z,101080
2019-03-18T18:51:56.324Z,101088
2019-03-18T18:57:18.957Z,101102
2019-03-18T19:02:41.586Z,101118
2019-03-18T19:08:04.242Z,101114
2019-03-18T19:13:27.029Z,101122
2019-03-18T19:18:49.704Z,101131
2019-03-18T19:24:14.069Z,101138
2019-03-18T19:29:36.729Z,101140
2019-03-18T19:34:59.489Z,101147
2019-03-18T19:40:22.289Z,101144
2019-03-18T19:45:45.060Z,101152
2019-03-18T19:51:07.858Z,101166
2019-03-18T19:56:31.549Z,101172
2019-03-18T20:01:54.334Z,101176
2019-03-18T20:07:18.055Z,101193
2019-03-18T20:12:40.729Z,101199
2019-03-18T20:18:03.654Z,101208
2019-03-18T20:23:26.820Z,101217
2019-03-18T20:28:49.494Z,101221
2019-03-18T20:34:12.193Z,101227
2019-03-18T20:39:34.828Z,101236
2019-03-18T20:44:57.555Z,101237
2019-03-18T20:50:20.323Z,101247
2019-03-18T20:55:43.574Z,101248
2019-03-18T21:01:06.435Z,101263
2019-03-18T21:06:29.187Z,101269
2019-03-18T21:11:52.013Z,101275
2019-03-18T21:17:14.818Z,101275
2019-03-18T21:22:37.424Z,101276
2019-03-18T21:28:00.119Z,101281
2019-03-18T21:33:22.754Z,101293
2019-03-18T21:38:45.488Z,101309
2019-03-18T21:44:08.143Z,101316
2019-03-18T21:49:30.784Z,101312
2019-03-18T21:54:53.424Z,101330
2019-03-18T22:00:16.085Z,101323
2019-03-18T22:05:38.782Z,101329
2019-03-18T22:11:01.457Z,101328
2019-03-18T22:16:24.149Z,101330
2019-03-18T22:21:46.930Z,101331
2019-03-18T22:27:09.838Z,101331
2019-03-18T22:32:32.506Z,101337
2019-03-18T22:37:55.193Z,101347
2019-03-18T22:43:17.939Z,101348
2019-03-18T22:48:40.709Z,101357
2019-03-18T22:54:03.462Z,101361
2019-03-18T22:59:26.280Z,101361
2019-03-18T23:04:49.051Z,101375
2019-03-18T23:10:11.752Z,101386
2019-03-18T23:15:34.576Z,101377
2019-03-18T23:20:57.277Z,101381
2019-03-18T23:26:19.988Z,101378
2019-03-18T23:31:42.823Z,101373
2019-03-18T23:37:05.535Z,101389
2019-03-18T23:42:28.200Z,101403
2019-03-18T23:47:50.915Z,101403
2019-03-18T23:53:14.199Z,101398
2019-03-18T23:58:37.510Z,101402
